Time;durP1;ratioP1;P1;durP2;ratioP2;P2;SDS_P1;SDS_P2;PMS_P1;PMS_P2;Temp;Humidity;BMP_temperature;BMP_pressure;BME280_temperature;BME280_humidity;BME280_pressure;Samples;Min_cycle;Max_cycle;Signal;HPM_P1;HPM_P2
2022/11/08 00:01:39;;;;;;;14.02;4.22;;;13.20;99.90;;;;;;4920761;28;90405;-29
2022/11/08 00:04:13;;;;;;;9.85;4.18;;;13.20;99.90;;;;;;4920291;28;89572;-31
2022/11/08 00:14:54;;;;;;;11.85;4.85;;;13.10;99.90;;;;;;4921111;28;90319;-29
2022/11/08 00:17:22;;;;;;;6.45;3.08;;;13.20;99.90;;;;;;4920978;28;90140;-31
2022/11/08 00:19:49;;;;;;;6.45;3.70;;;13.20;99.90;;;;;;4920562;28;89531;-29
2022/11/08 00:22:15;;;;;;;8.43;4.68;;;13.30;99.90;;;;;;4911723;28;88737;-28
2022/11/08 00:24:41;;;;;;;8.23;4.22;;;13.20;99.90;;;;;;4916087;28;89337;-29
2022/11/08 00:27:11;;;;;;;15.02;4.85;;;13.20;99.90;;;;;;4921203;28;90028;-30
2022/11/08 00:29:37;;;;;;;12.00;4.65;;;13.20;99.90;;;;;;4920438;28;90073;-29
2022/11/08 00:32:04;;;;;;;9.63;4.00;;;13.20;99.90;;;;;;4920526;28;89715;-30
2022/11/08 00:34:31;;;;;;;10.98;3.60;;;13.20;99.90;;;;;;4920229;28;91047;-29
2022/11/08 00:36:57;;;;;;;8.70;3.90;;;13.20;99.90;;;;;;4919318;28;88939;-29
2022/11/08 00:39:22;;;;;;;7.45;3.55;;;13.20;99.90;;;;;;4920698;28;90225;-27
2022/11/08 00:41:48;;;;;;;11.13;4.38;;;13.10;99.90;;;;;;4919896;28;89916;-30
2022/11/08 00:44:14;;;;;;;11.27;3.78;;;13.10;99.90;;;;;;4921831;28;88070;-27
2022/11/08 00:46:40;;;;;;;6.45;3.97;;;13.10;99.90;;;;;;4924011;28;90173;-33
2022/11/08 00:49:06;;;;;;;10.55;3.80;;;13.10;99.90;;;;;;4923415;28;90788;-29
2022/11/08 00:51:32;;;;;;;10.75;3.88;;;13.10;99.90;;;;;;4923916;28;89663;-27
2022/11/08 00:53:58;;;;;;;6.68;4.78;;;13.10;99.90;;;;;;4922810;28;90039;-31
2022/11/08 00:56:24;;;;;;;7.57;3.60;;;13.00;99.90;;;;;;4923865;28;88605;-31
2022/11/08 00:58:50;;;;;;;7.97;4.25;;;12.90;99.90;;;;;;4923581;28;90100;-26
2022/11/08 01:01:18;;;;;;;9.23;4.50;;;12.90;99.90;;;;;;4922558;28;90740;-28
2022/11/08 01:03:46;;;;;;;6.75;3.22;;;12.80;99.90;;;;;;4922904;28;90907;-30
2022/11/08 01:06:14;;;;;;;10.20;4.50;;;12.80;99.90;;;;;;4923775;28;88306;-28
2022/11/08 01:08:40;;;;;;;5.80;3.57;;;12.80;99.90;;;;;;4923659;28;90254;-32
2022/11/08 01:11:10;;;;;;;5.70;3.90;;;12.80;99.90;;;;;;4923736;28;89605;-29
2022/11/08 01:13:35;;;;;;;14.75;4.47;;;12.70;99.90;;;;;;4923092;28;89399;-28
2022/11/08 01:16:10;;;;;;;9.80;4.25;;;12.70;99.90;;;;;;4923384;28;88334;-28
2022/11/08 01:18:36;;;;;;;8.85;3.92;;;12.70;99.90;;;;;;4923574;28;90392;-29
2022/11/08 01:21:03;;;;;;;10.10;4.15;;;12.70;99.90;;;;;;4923199;28;89629;-29
2022/11/08 01:23:29;;;;;;;5.65;4.10;;;12.60;99.90;;;;;;4909786;28;89946;-32
2022/11/08 01:25:55;;;;;;;3.65;3.33;;;12.60;99.90;;;;;;4922315;28;88598;-30
2022/11/08 01:28:21;;;;;;;10.65;4.82;;;12.60;99.90;;;;;;4923012;28;89277;-30
2022/11/08 01:30:46;;;;;;;6.93;4.15;;;12.50;99.90;;;;;;4922998;28;90918;-27
2022/11/08 01:33:13;;;;;;;6.93;3.85;;;12.60;99.90;;;;;;4922945;28;89633;-28
2022/11/08 01:35:39;;;;;;;9.18;3.53;;;12.50;99.90;;;;;;4923279;28;88105;-30
2022/11/08 01:38:05;;;;;;;10.15;4.05;;;12.50;99.90;;;;;;4922951;28;90278;-29
2022/11/08 01:40:32;;;;;;;13.02;4.63;;;12.40;99.90;;;;;;4922846;28;89906;-29
2022/11/08 01:42:57;;;;;;;6.03;4.30;;;12.40;99.90;;;;;;4923137;28;90932;-27
2022/11/08 01:46:01;;;;;;;9.52;4.53;;;12.40;99.90;;;;;;4923263;28;89161;-30
2022/11/08 01:48:27;;;;;;;9.25;4.32;;;12.30;99.90;;;;;;4922756;28;90361;-27
2022/11/08 01:50:57;;;;;;;9.07;3.88;;;12.40;99.90;;;;;;4922245;28;91178;-31
2022/11/08 01:53:24;;;;;;;6.22;3.60;;;12.30;99.90;;;;;;4922739;28;90395;-27
2022/11/08 01:55:50;;;;;;;13.65;4.70;;;12.30;99.90;;;;;;4909017;28;90121;-28
2022/11/08 01:58:23;;;;;;;5.82;3.85;;;12.20;99.90;;;;;;4923133;28;90292;-32
2022/11/08 02:00:49;;;;;;;10.43;5.07;;;12.30;99.90;;;;;;4922339;28;89212;-32
2022/11/08 02:03:18;;;;;;;5.35;2.65;;;12.30;99.90;;;;;;4922726;28;89124;-31
2022/11/08 02:05:45;;;;;;;14.90;4.63;;;12.20;99.90;;;;;;4922711;28;89824;-27
2022/11/08 02:08:32;;;;;;;5.55;3.78;;;12.20;99.90;;;;;;4923649;28;91847;-29
2022/11/08 02:10:58;;;;;;;11.20;3.80;;;12.30;99.90;;;;;;4920932;28;89505;-29
2022/11/08 02:13:26;;;;;;;11.60;3.83;;;12.30;99.90;;;;;;4922130;28;89125;-28
2022/11/08 02:15:52;;;;;;;5.70;3.83;;;12.20;99.90;;;;;;4922331;28;90052;-28
2022/11/08 02:18:20;;;;;;;9.70;3.53;;;12.30;99.90;;;;;;4908602;28;90090;-27
2022/11/08 02:21:03;;;;;;;6.90;4.28;;;12.30;99.90;;;;;;4905246;28;89506;-30
2022/11/08 02:23:50;;;;;;;8.65;3.97;;;12.40;99.90;;;;;;4922495;28;89102;-29
2022/11/08 02:26:19;;;;;;;14.43;5.60;;;12.40;99.90;;;;;;4910437;28;89343;-26
2022/11/08 02:28:47;;;;;;;12.38;3.97;;;12.40;99.90;;;;;;4918253;28;92282;-30
2022/11/08 02:31:15;;;;;;;12.40;3.93;;;12.40;99.90;;;;;;4922054;28;89387;-27
2022/11/08 02:33:41;;;;;;;8.20;4.75;;;12.40;99.90;;;;;;4921695;28;88451;-29
2022/11/08 02:36:11;;;;;;;10.60;4.65;;;12.30;99.90;;;;;;4909602;28;89058;-30
2022/11/08 02:38:40;;;;;;;7.35;4.38;;;12.30;99.90;;;;;;4922133;28;90157;-30
2022/11/08 02:41:06;;;;;;;6.60;3.83;;;12.30;99.90;;;;;;4922048;28;90629;-31
2022/11/08 02:43:31;;;;;;;8.40;4.22;;;12.30;99.90;;;;;;4922082;28;91162;-30
2022/11/08 02:45:58;;;;;;;7.45;3.65;;;12.30;99.90;;;;;;4922183;28;89133;-30
2022/11/08 02:48:24;;;;;;;9.23;4.60;;;12.30;99.90;;;;;;4922277;28;90316;-31
2022/11/08 02:50:50;;;;;;;8.13;3.80;;;12.20;99.90;;;;;;4920659;28;89497;-30
2022/11/08 02:53:16;;;;;;;8.13;3.72;;;12.20;99.90;;;;;;4909552;28;89457;-30
2022/11/08 02:55:42;;;;;;;8.18;4.40;;;12.10;99.90;;;;;;4922010;28;88218;-27
2022/11/08 02:58:08;;;;;;;12.15;3.90;;;12.10;99.90;;;;;;4922184;28;90123;-30
2022/11/08 03:00:33;;;;;;;8.95;4.03;;;12.20;99.90;;;;;;4922403;28;89913;-27
2022/11/08 03:02:59;;;;;;;8.13;3.40;;;12.10;99.90;;;;;;4921206;28;89470;-28
2022/11/08 03:05:26;;;;;;;6.00;3.38;;;12.10;99.90;;;;;;4921807;28;89017;-30
2022/11/08 03:07:53;;;;;;;8.40;3.97;;;12.10;99.90;;;;;;4921250;28;89933;-28
2022/11/08 03:10:19;;;;;;;7.78;3.90;;;12.10;99.90;;;;;;4921523;28;90066;-29
2022/11/08 03:12:45;;;;;;;5.35;3.35;;;12.10;99.90;;;;;;4921081;28;90424;-31
2022/11/08 03:15:13;;;;;;;10.90;3.75;;;12.00;99.90;;;;;;4921738;28;88281;-30
2022/11/08 03:17:39;;;;;;;11.87;3.80;;;12.00;99.90;;;;;;4954950;23;89744;-29
2022/11/08 03:20:05;;;;;;;6.28;3.10;;;12.00;99.90;;;;;;4921335;28;90358;-31
2022/11/08 03:22:31;;;;;;;8.80;4.05;;;12.00;99.90;;;;;;4922222;28;89231;-28
2022/11/08 03:24:56;;;;;;;13.63;4.00;;;12.00;99.90;;;;;;4919853;28;88712;-29
2022/11/08 03:27:22;;;;;;;8.88;3.97;;;11.90;99.90;;;;;;4921644;28;90192;-29
2022/11/08 03:29:48;;;;;;;6.38;3.78;;;11.90;99.90;;;;;;4920417;28;90729;-30
2022/11/08 03:32:15;;;;;;;7.05;3.95;;;11.90;99.90;;;;;;4920838;28;89864;-31
2022/11/08 03:34:41;;;;;;;8.45;4.45;;;11.80;99.90;;;;;;4921750;28;89617;-26
2022/11/08 03:37:08;;;;;;;5.88;3.40;;;11.80;99.90;;;;;;4921082;28;89949;-28
2022/11/08 03:39:34;;;;;;;7.60;3.95;;;11.70;99.90;;;;;;4921183;28;89699;-28
2022/11/08 03:42:01;;;;;;;6.88;4.15;;;11.70;99.90;;;;;;4920853;28;90895;-26
2022/11/08 03:44:31;;;;;;;5.03;3.42;;;11.70;99.90;;;;;;4921241;28;88684;-28
2022/11/08 03:47:00;;;;;;;5.07;3.25;;;11.80;99.90;;;;;;4921174;28;90227;-27
2022/11/08 03:49:26;;;;;;;3.75;3.45;;;11.80;99.90;;;;;;4907598;28;90295;-26
2022/11/08 03:51:54;;;;;;;7.90;3.50;;;11.70;99.90;;;;;;4920738;28;89527;-27
2022/11/08 03:54:20;;;;;;;3.97;2.90;;;11.70;99.90;;;;;;4921015;28;89256;-30
2022/11/08 03:56:45;;;;;;;8.88;3.05;;;11.80;99.90;;;;;;4920745;28;89428;-29
2022/11/08 03:59:11;;;;;;;7.72;3.83;;;11.80;99.90;;;;;;4920886;28;90190;-26
2022/11/08 04:01:38;;;;;;;6.82;4.63;;;11.80;99.90;;;;;;4920724;28;88802;-30
2022/11/08 04:04:04;;;;;;;7.20;3.75;;;11.80;99.90;;;;;;4920130;28;88474;-28
2022/11/08 04:06:30;;;;;;;3.17;2.88;;;11.80;99.90;;;;;;4921114;28;90624;-30
2022/11/08 04:08:56;;;;;;;10.38;4.22;;;11.80;99.90;;;;;;4920372;28;91391;-29
2022/11/08 04:16:52;;;;;;;11.88;3.95;;;11.80;99.90;;;;;;4907831;28;89643;-28
2022/11/08 04:22:02;;;;;;;6.35;3.60;;;11.80;99.90;;;;;;4920618;28;90507;-28
2022/11/08 04:24:28;;;;;;;8.50;3.17;;;11.90;99.90;;;;;;4920754;28;88140;-28
2022/11/08 04:26:53;;;;;;;11.82;3.65;;;11.90;99.90;;;;;;4920477;28;90068;-29
2022/11/08 04:29:19;;;;;;;9.18;3.28;;;11.90;99.90;;;;;;4919797;28;89428;-28
2022/11/08 04:31:44;;;;;;;6.35;3.55;;;11.90;99.90;;;;;;4920424;28;89698;-31
2022/11/08 04:34:10;;;;;;;7.78;4.15;;;11.80;99.90;;;;;;4920566;28;89406;-29
2022/11/08 04:36:35;;;;;;;4.40;3.10;;;11.70;99.90;;;;;;4920531;28;90329;-31
2022/11/08 04:39:01;;;;;;;9.40;3.30;;;11.80;99.90;;;;;;4919688;28;89716;-29
2022/11/08 04:41:27;;;;;;;8.50;4.28;;;11.80;99.90;;;;;;4919724;28;89519;-29
2022/11/08 04:43:56;;;;;;;6.00;3.15;;;11.70;99.90;;;;;;4920058;28;90666;-29
2022/11/08 04:46:24;;;;;;;7.22;3.60;;;11.80;99.90;;;;;;4919942;28;92248;-29
2022/11/08 04:48:52;;;;;;;6.28;3.70;;;11.80;99.90;;;;;;4919903;28;89411;-27
2022/11/08 04:51:19;;;;;;;;;;;11.70;99.90;;;;;;4920513;28;89317;-30
2022/11/08 04:53:45;;;;;;;8.95;5.18;;;11.70;99.90;;;;;;4921016;28;87861;-31
2022/11/08 04:56:18;;;;;;;6.55;3.22;;;11.70;99.90;;;;;;4918955;28;91734;-29
2022/11/08 04:58:46;;;;;;;8.85;4.07;;;11.70;99.90;;;;;;4919890;28;90412;-29
2022/11/08 05:01:16;;;;;;;;;;;11.60;99.90;;;;;;4921131;28;89448;-29
2022/11/08 05:03:44;;;;;;;17.45;5.22;;;11.60;99.90;;;;;;4921367;28;90253;-28
2022/11/08 05:06:12;;;;;;;5.40;4.22;;;11.50;99.90;;;;;;4919726;28;91294;-27
2022/11/08 05:08:38;;;;;;;5.60;3.72;;;11.50;99.90;;;;;;4919367;28;91256;-29
2022/11/08 05:11:06;;;;;;;6.22;4.20;;;11.50;99.90;;;;;;4919515;28;90508;-27
2022/11/08 05:13:32;;;;;;;8.07;4.47;;;11.50;99.90;;;;;;4919896;28;89428;-29
2022/11/08 05:16:25;;;;;;;10.43;4.10;;;11.40;99.90;;;;;;4919959;28;90226;-27
2022/11/08 05:18:51;;;;;;;6.70;4.72;;;11.40;99.90;;;;;;4879406;28;90042;-29
2022/11/08 05:24:04;;;;;;;7.40;4.32;;;11.40;99.90;;;;;;4881272;28;89331;-29
2022/11/08 05:26:33;;;;;;;8.55;4.63;;;11.40;99.90;;;;;;4881537;28;92173;-28
2022/11/08 05:28:58;;;;;;;11.48;4.55;;;11.40;99.90;;;;;;4880795;28;89179;-30
2022/11/08 05:31:24;;;;;;;9.70;3.80;;;11.40;99.90;;;;;;4884428;28;89049;-28
2022/11/08 05:33:51;;;;;;;8.18;3.70;;;11.40;99.90;;;;;;4883414;28;90782;-27
2022/11/08 05:36:17;;;;;;;13.93;5.30;;;11.40;99.90;;;;;;4884925;28;90239;-28
2022/11/08 05:38:43;;;;;;;7.30;4.20;;;11.50;99.90;;;;;;4884191;28;91165;-29
2022/11/08 05:41:14;;;;;;;6.43;4.22;;;11.40;99.90;;;;;;4884427;28;90007;-29
2022/11/08 05:43:41;;;;;;;6.05;4.03;;;11.30;99.90;;;;;;4884404;28;89793;-28
2022/11/08 05:46:07;;;;;;;4.60;4.15;;;11.30;99.90;;;;;;4884510;28;91162;-29
2022/11/08 05:48:32;;;;;;;8.23;4.75;;;11.30;99.90;;;;;;4895672;28;89657;-27
2022/11/08 05:50:58;;;;;;;7.65;4.13;;;11.20;99.90;;;;;;4884850;28;89108;-28
2022/11/08 05:53:24;;;;;;;9.10;4.60;;;11.30;99.90;;;;;;4884686;28;89716;-31
2022/11/08 05:55:49;;;;;;;6.85;5.00;;;11.30;99.90;;;;;;4883791;28;90866;-28
2022/11/08 05:58:15;;;;;;;13.80;4.97;;;11.30;99.90;;;;;;4884188;28;90453;-31
2022/11/08 06:00:41;;;;;;;13.60;4.40;;;11.30;99.90;;;;;;4884324;28;90399;-30
2022/11/08 06:03:07;;;;;;;13.98;4.55;;;11.30;99.90;;;;;;4883707;28;89565;-30
2022/11/08 06:05:32;;;;;;;12.98;4.60;;;11.20;99.90;;;;;;4883903;28;89179;-30
2022/11/08 06:07:58;;;;;;;7.30;4.65;;;11.20;99.90;;;;;;4883338;28;89994;-29
2022/11/08 06:10:24;;;;;;;14.23;4.70;;;11.20;99.90;;;;;;4883104;28;89253;-27
2022/11/08 06:12:50;;;;;;;10.35;5.10;;;11.20;99.90;;;;;;4883473;28;90091;-27
2022/11/08 06:15:15;;;;;;;7.78;4.85;;;11.20;99.90;;;;;;4883745;28;89852;-30
2022/11/08 06:17:41;;;;;;;10.57;5.57;;;11.20;99.90;;;;;;4901458;28;89529;-28
2022/11/08 06:20:08;;;;;;;11.18;7.10;;;11.10;99.90;;;;;;4922189;28;88748;-27
2022/11/08 06:22:34;;;;;;;8.23;5.57;;;11.00;99.90;;;;;;4922150;28;89833;-28
2022/11/08 06:25:00;;;;;;;9.02;5.68;;;11.00;99.90;;;;;;4920880;28;89716;-27
2022/11/08 06:27:26;;;;;;;10.75;5.75;;;11.00;99.90;;;;;;4921882;28;90183;-28
2022/11/08 06:29:52;;;;;;;7.53;5.18;;;11.00;99.90;;;;;;4922023;28;89926;-28
2022/11/08 06:32:17;;;;;;;10.63;6.28;;;11.00;99.90;;;;;;4921941;28;89074;-27
2022/11/08 06:34:45;;;;;;;7.32;5.63;;;10.90;99.90;;;;;;4921178;28;91333;-30
2022/11/08 06:37:11;;;;;;;9.55;4.93;;;10.90;99.90;;;;;;4922804;28;89793;-27
2022/11/08 06:39:37;;;;;;;10.63;4.55;;;10.90;99.90;;;;;;4921423;28;89338;-29
2022/11/08 06:42:02;;;;;;;15.32;5.82;;;10.90;99.90;;;;;;4921015;28;89767;-30
2022/11/08 06:44:28;;;;;;;8.68;5.30;;;10.90;99.90;;;;;;4921859;28;90196;-28
2022/11/08 06:46:56;;;;;;;10.57;5.20;;;10.90;99.90;;;;;;4921169;28;90539;-31
2022/11/08 06:49:22;;;;;;;;;;;10.80;99.90;;;;;;4922796;28;90480;-32
2022/11/08 06:51:49;;;;;;;12.88;8.27;;;10.90;99.90;;;;;;4923330;28;88979;-28
2022/11/08 06:54:14;;;;;;;7.40;5.07;;;10.90;99.90;;;;;;4921531;28;90351;-28
2022/11/08 06:56:40;;;;;;;10.32;5.07;;;10.90;99.90;;;;;;4920091;28;89904;-28
2022/11/08 06:59:06;;;;;;;8.35;5.22;;;11.00;99.90;;;;;;4914909;28;89844;-28
2022/11/08 07:01:31;;;;;;;7.82;4.53;;;11.00;99.90;;;;;;4914537;28;87781;-31
2022/11/08 07:03:57;;;;;;;12.43;5.07;;;11.00;99.90;;;;;;4915587;28;89955;-30
2022/11/08 07:06:22;;;;;;;9.88;4.65;;;11.00;99.90;;;;;;4910067;28;89423;-31
2022/11/08 07:08:48;;;;;;;9.10;4.68;;;11.10;99.90;;;;;;4914955;28;89875;-27
2022/11/08 07:11:14;;;;;;;10.85;4.15;;;11.10;99.90;;;;;;4913936;28;90221;-28
2022/11/08 07:13:40;;;;;;;9.93;5.90;;;11.10;99.90;;;;;;4911155;28;90451;-28
2022/11/08 07:16:06;;;;;;;4.43;4.00;;;11.20;99.90;;;;;;4907693;28;91177;-27
2022/11/08 07:18:31;;;;;;;7.25;4.45;;;11.20;99.90;;;;;;4904558;28;89915;-28
2022/11/08 07:20:59;;;;;;;11.30;4.95;;;11.20;99.90;;;;;;4907565;28;88411;-29
2022/11/08 07:23:25;;;;;;;6.65;3.63;;;11.20;99.90;;;;;;4915403;28;90387;-28
2022/11/08 07:25:50;;;;;;;7.15;3.47;;;11.20;99.90;;;;;;4912590;28;89421;-27
2022/11/08 07:28:17;;;;;;;4.75;4.18;;;11.20;99.90;;;;;;4920135;28;89791;-29
2022/11/08 07:30:47;;;;;;;6.38;4.38;;;11.20;99.90;;;;;;4920634;28;88421;-30
2022/11/08 07:33:14;;;;;;;10.85;4.88;;;11.20;99.90;;;;;;4921293;28;90715;-27
2022/11/08 07:35:40;;;;;;;8.13;4.55;;;11.30;99.90;;;;;;4919794;28;90992;-30
2022/11/08 07:38:06;;;;;;;5.28;3.90;;;11.30;99.90;;;;;;4921430;28;90012;-27
2022/11/08 07:51:27;;;;;;;4.80;3.05;;;11.50;99.90;;;;;;4957741;23;88442;-28
2022/11/08 07:53:53;;;;;;;6.13;3.38;;;11.50;99.90;;;;;;4843920;28;90200;-30
2022/11/08 07:56:18;;;;;;;9.07;3.15;;;11.60;99.90;;;;;;4863226;28;89706;-28
2022/11/08 07:58:44;;;;;;;6.55;4.07;;;11.50;99.90;;;;;;4863185;28;89786;-28
2022/11/08 08:01:09;;;;;;;9.93;4.28;;;11.50;99.90;;;;;;4863954;28;90561;-28
2022/11/08 08:03:35;;;;;;;7.97;3.90;;;11.60;99.90;;;;;;4862624;28;89376;-27
2022/11/08 08:06:01;;;;;;;10.65;4.35;;;11.60;99.90;;;;;;4863312;28;90113;-30
2022/11/08 08:08:27;;;;;;;7.80;3.42;;;11.60;99.90;;;;;;4862834;28;89377;-29
2022/11/08 08:10:57;;;;;;;6.22;3.83;;;11.60;99.90;;;;;;4863175;28;89298;-30
2022/11/08 08:13:22;;;;;;;6.40;4.55;;;11.60;99.90;;;;;;4839952;28;90143;-28
2022/11/08 08:15:48;;;;;;;10.70;4.18;;;11.70;99.90;;;;;;4869768;28;90710;-27
2022/11/08 08:18:16;;;;;;;6.82;4.00;;;11.70;99.90;;;;;;4881995;28;89612;-28
2022/11/08 08:20:42;;;;;;;4.10;3.25;;;11.70;99.90;;;;;;4881656;28;89325;-30
2022/11/08 08:23:07;;;;;;;4.30;3.90;;;11.80;99.90;;;;;;4882197;28;90250;-29
2022/11/08 08:25:33;;;;;;;8.18;3.53;;;11.90;99.90;;;;;;4875573;28;90164;-30
2022/11/08 08:28:02;;;;;;;3.90;3.03;;;12.00;99.90;;;;;;4863036;28;90753;-30
2022/11/08 08:30:29;;;;;;;7.80;3.47;;;12.10;99.90;;;;;;4863231;28;89523;-26
2022/11/08 08:33:04;;;;;;;7.07;3.70;;;12.20;99.90;;;;;;4862493;28;88779;-35
2022/11/08 08:35:29;;;;;;;8.45;3.30;;;12.30;99.90;;;;;;4862757;28;89793;-30
2022/11/08 08:38:02;;;;;;;4.82;3.50;;;12.40;99.90;;;;;;4862854;28;89273;-29
2022/11/08 08:40:28;;;;;;;5.82;3.08;;;12.50;99.90;;;;;;4862947;28;88890;-33
2022/11/08 08:42:54;;;;;;;6.47;2.80;;;12.50;99.90;;;;;;4838377;28;89115;-32
2022/11/08 08:45:19;;;;;;;4.50;3.47;;;12.60;99.90;;;;;;4881512;28;89818;-32
2022/11/08 08:47:50;;;;;;;3.75;3.20;;;12.60;99.90;;;;;;4881423;28;90543;-31
2022/11/08 08:50:16;;;;;;;5.28;3.40;;;12.60;99.90;;;;;;4882081;28;89598;-32
2022/11/08 08:52:42;;;;;;;6.97;4.47;;;12.60;99.90;;;;;;4880721;28;90234;-32
2022/11/08 08:55:07;;;;;;;4.38;2.95;;;12.70;99.90;;;;;;4881514;28;89433;-30
2022/11/08 08:57:33;;;;;;;3.83;3.53;;;12.70;99.90;;;;;;4881481;28;89507;-33
2022/11/08 08:59:59;;;;;;;7.13;3.55;;;12.70;99.90;;;;;;4881121;28;89657;-47
2022/11/08 09:02:24;;;;;;;7.05;3.40;;;12.80;99.90;;;;;;4882149;28;90068;-41
2022/11/08 09:04:50;;;;;;;6.35;4.28;;;12.70;99.90;;;;;;4881394;28;89471;-40
2022/11/08 09:07:15;;;;;;;4.68;3.20;;;12.80;99.90;;;;;;5119502;23;89554;-32
2022/11/08 09:09:41;;;;;;;4.38;3.38;;;12.80;99.90;;;;;;4922051;28;87931;-32
2022/11/08 09:12:06;;;;;;;3.55;3.25;;;12.80;99.90;;;;;;4923122;28;90455;-34
2022/11/08 09:14:32;;;;;;;4.32;3.15;;;12.90;99.90;;;;;;4922518;28;90577;-34
2022/11/08 09:16:58;;;;;;;5.00;3.20;;;13.00;99.90;;;;;;4923172;28;89364;-29
2022/11/08 09:19:23;;;;;;;5.18;3.08;;;13.10;99.90;;;;;;4879962;28;89981;-31
2022/11/08 09:21:49;;;;;;;5.80;3.40;;;13.20;99.90;;;;;;4922527;28;90528;-29
2022/11/08 09:24:16;;;;;;;3.80;2.50;;;13.30;99.90;;;;;;4922786;28;89117;-31
2022/11/08 09:26:41;;;;;;;4.63;3.33;;;13.40;99.90;;;;;;4907640;28;89789;-33
2022/11/08 09:29:07;;;;;;;3.40;3.03;;;13.40;99.90;;;;;;4904348;28;88482;-32
2022/11/08 09:31:32;;;;;;;4.95;2.95;;;13.40;99.90;;;;;;4903892;28;91888;-31
2022/11/08 09:33:58;;;;;;;6.07;2.70;;;13.50;99.90;;;;;;4903065;28;89673;-31
2022/11/08 09:36:23;;;;;;;5.93;2.92;;;13.50;99.90;;;;;;4903656;28;89812;-34
2022/11/08 09:38:49;;;;;;;6.68;3.72;;;13.60;99.90;;;;;;4902791;28;89760;-33
2022/11/08 09:41:43;;;;;;;4.88;2.53;;;13.70;99.90;;;;;;4903678;28;90124;-31
2022/11/08 09:44:39;;;;;;;3.83;2.80;;;13.80;99.90;;;;;;4903317;28;89767;-32
2022/11/08 09:47:37;;;;;;;5.45;2.60;;;14.00;99.90;;;;;;4809742;28;88585;-32
2022/11/08 09:50:06;;;;;;;10.00;3.20;;;14.10;99.90;;;;;;4884076;28;90320;-32
2022/11/08 09:52:33;;;;;;;6.93;2.80;;;14.10;99.90;;;;;;4884546;28;89321;-32
2022/11/08 09:55:28;;;;;;;3.13;2.25;;;14.10;99.90;;;;;;4883896;28;89212;-31
2022/11/08 09:58:20;;;;;;;3.42;1.98;;;14.20;99.90;;;;;;4883312;28;89292;-33
2022/11/08 10:00:49;;;;;;;7.85;2.42;;;14.20;99.90;;;;;;4873488;28;88807;-33
2022/11/08 10:03:17;;;;;;;5.10;2.70;;;14.20;99.90;;;;;;4884276;28;88953;-33
2022/11/08 10:06:23;;;;;;;2.28;2.08;;;14.20;99.90;;;;;;4884252;28;90844;-32
2022/11/08 10:09:04;;;;;;;3.42;2.67;;;14.20;99.90;;;;;;4871171;28;90291;-33
2022/11/08 10:11:42;;;;;;;3.20;2.38;;;14.30;99.90;;;;;;4884138;28;88195;-33
2022/11/08 10:14:44;;;;;;;13.43;2.88;;;14.30;99.90;;;;;;4884420;28;90288;-32
2022/11/08 10:17:28;;;;;;;3.88;2.95;;;14.40;99.90;;;;;;4884456;28;90051;-33
2022/11/08 10:20:08;;;;;;;3.85;2.40;;;14.40;99.90;;;;;;4883871;28;90321;-33
2022/11/08 10:22:58;;;;;;;5.75;2.95;;;14.50;99.90;;;;;;4883635;28;89234;-32
2022/11/08 10:25:37;;;;;;;2.63;2.40;;;14.60;99.90;;;;;;4883904;28;90499;-30
2022/11/08 10:28:06;;;;;;;3.72;2.47;;;14.60;99.90;;;;;;4883614;28;89635;-32
2022/11/08 10:30:39;;;;;;;4.20;2.50;;;14.60;99.90;;;;;;4883670;28;89502;-32
2022/11/08 10:33:33;;;;;;;5.93;2.88;;;14.60;99.90;;;;;;4883409;28;89160;-33
2022/11/08 10:36:19;;;;;;;4.60;2.28;;;14.70;99.90;;;;;;4871343;28;90361;-34
2022/11/08 10:39:07;;;;;;;4.65;3.13;;;14.80;99.90;;;;;;4883435;28;89738;-32
2022/11/08 10:41:51;;;;;;;2.03;1.83;;;14.80;99.90;;;;;;4884142;28;89641;-33
2022/11/08 10:44:23;;;;;;;3.50;1.92;;;14.70;99.90;;;;;;4882763;28;89181;-32
2022/11/08 10:46:54;;;;;;;4.93;2.53;;;14.70;99.90;;;;;;4883326;28;91497;-32
2022/11/08 10:49:23;;;;;;;3.33;2.08;;;14.80;99.90;;;;;;4883640;28;90130;-33
2022/11/08 10:51:50;;;;;;;;;;;14.70;99.90;;;;;;4884366;28;89325;-33
2022/11/08 10:54:45;;;;;;;2.42;2.22;;;14.70;99.90;;;;;;4884682;28;89685;-31
2022/11/08 10:57:21;;;;;;;5.25;2.65;;;14.60;99.90;;;;;;4883016;28;90218;-34
2022/11/08 10:59:47;;;;;;;3.55;2.38;;;14.60;99.90;;;;;;4882794;28;90780;-33
2022/11/08 11:02:35;;;;;;;4.30;2.17;;;14.60;99.90;;;;;;4883144;28;90043;-31
2022/11/08 11:05:34;;;;;;;3.53;2.78;;;14.60;99.90;;;;;;4882130;28;89135;-34
2022/11/08 11:08:14;;;;;;;6.53;5.50;;;14.60;99.90;;;;;;4882774;28;89480;-32
2022/11/08 11:10:45;;;;;;;3.88;2.72;;;14.60;99.90;;;;;;4882403;28;89566;-35
2022/11/08 11:13:20;;;;;;;3.92;3.53;;;14.50;99.90;;;;;;4883374;28;90029;-32
2022/11/08 11:15:50;;;;;;;6.43;2.65;;;14.50;99.90;;;;;;4882812;28;89442;-31
2022/11/08 11:18:46;;;;;;;3.00;2.20;;;14.60;99.90;;;;;;4883368;28;92254;-32
2022/11/08 11:21:19;;;;;;;5.03;2.58;;;14.60;99.90;;;;;;4882816;28;89337;-31
2022/11/08 11:24:04;;;;;;;4.10;2.83;;;14.60;99.90;;;;;;4883176;28;90266;-32
2022/11/08 11:26:37;;;;;;;6.80;2.67;;;14.50;99.90;;;;;;4882293;28;90414;-31
2022/11/08 11:29:03;;;;;;;7.35;2.90;;;14.60;99.90;;;;;;4840030;28;89983;-30
2022/11/08 11:31:40;;;;;;;9.05;3.08;;;14.50;99.90;;;;;;4913350;28;89420;-33
2022/11/08 11:34:18;;;;;;;3.78;2.67;;;14.60;99.90;;;;;;4901668;28;90139;-33
2022/11/08 11:36:44;;;;;;;5.18;2.80;;;14.70;99.90;;;;;;4902042;28;87688;-32
2022/11/08 11:39:23;;;;;;;6.68;2.78;;;14.70;99.90;;;;;;4901842;28;90732;-31
2022/11/08 11:42:03;;;;;;;4.95;3.22;;;14.70;99.90;;;;;;4905851;28;89695;-32
2022/11/08 11:44:52;;;;;;;2.95;2.50;;;14.80;99.90;;;;;;4890729;28;89457;-31
2022/11/08 11:47:32;;;;;;;3.95;2.90;;;14.90;99.90;;;;;;4902644;28;88925;-30
2022/11/08 11:50:09;;;;;;;3.33;2.10;;;14.90;99.90;;;;;;4901436;28;91301;-32
2022/11/08 11:52:35;;;;;;;3.22;2.17;;;14.90;99.90;;;;;;4901026;28;90275;-31
2022/11/08 11:55:01;;;;;;;7.60;3.08;;;14.90;99.90;;;;;;4900156;28;91070;-31
2022/11/08 11:57:50;;;;;;;4.97;2.78;;;14.90;99.90;;;;;;4899733;28;89564;-32
2022/11/08 12:00:16;;;;;;;3.95;2.88;;;15.00;99.90;;;;;;4893267;28;90051;-31
2022/11/08 12:02:54;;;;;;;4.22;2.55;;;15.00;99.90;;;;;;4900712;28;89546;-32
2022/11/08 12:05:47;;;;;;;6.97;2.78;;;15.10;99.90;;;;;;4900950;28;89289;-30
2022/11/08 12:08:15;;;;;;;3.28;2.97;;;15.10;99.90;;;;;;4902634;28;89817;-30
2022/11/08 12:10:53;;;;;;;3.30;2.80;;;15.10;99.90;;;;;;4902989;28;90257;-32
2022/11/08 12:13:33;;;;;;;3.42;2.75;;;15.10;99.90;;;;;;4901232;28;89824;-31
2022/11/08 12:16:32;;;;;;;3.15;2.63;;;15.10;99.90;;;;;;4900937;28;90349;-31
2022/11/08 12:19:26;;;;;;;4.38;2.88;;;15.10;99.90;;;;;;4905040;28;88871;-30
2022/11/08 12:22:20;;;;;;;6.00;2.75;;;15.00;99.90;;;;;;4901308;28;90515;-32
2022/11/08 12:25:13;;;;;;;4.65;2.47;;;15.20;99.90;;;;;;4897627;28;90684;-31
2022/11/08 12:28:23;;;;;;;7.10;3.05;;;15.20;99.90;;;;;;4890920;28;89780;-31
2022/11/08 12:31:06;;;;;;;7.35;4.03;;;15.30;99.90;;;;;;4894705;28;89356;-33
2022/11/08 12:33:49;;;;;;;2.67;2.47;;;15.40;99.90;;;;;;4899584;28;90579;-30
2022/11/08 12:36:29;;;;;;;34.05;7.18;;;15.40;99.90;;;;;;4900961;28;90281;-31
2022/11/08 12:39:20;;;;;;;139.10;18.63;;;15.30;99.90;;;;;;4900595;28;89752;-33
2022/11/08 12:42:05;;;;;;;12.30;3.28;;;15.20;99.90;;;;;;4902991;28;88892;-30
2022/11/08 12:44:43;;;;;;;8.85;3.53;;;15.20;99.90;;;;;;4904413;28;90327;-31
2022/11/08 12:47:34;;;;;;;8.13;3.08;;;15.20;99.90;;;;;;4904562;28;90448;-32
2022/11/08 12:50:06;;;;;;;4.68;2.10;;;15.20;99.90;;;;;;4898124;28;90456;-34
2022/11/08 12:52:41;;;;;;;3.50;2.92;;;15.20;99.90;;;;;;4901590;28;88005;-33
2022/11/08 12:55:24;;;;;;;2.63;2.40;;;15.20;99.90;;;;;;4904067;28;90346;-32
2022/11/08 12:57:53;;;;;;;4.25;2.22;;;15.20;99.90;;;;;;4902770;28;90183;-32
2022/11/08 13:00:19;;;;;;;2.50;2.17;;;15.20;99.90;;;;;;4903589;28;89670;-31
2022/11/08 13:02:59;;;;;;;2.55;2.22;;;15.20;99.90;;;;;;4902728;28;88483;-33
2022/11/08 13:05:35;;;;;;;2.60;2.40;;;15.10;99.90;;;;;;4903836;28;89274;-33
2022/11/08 13:08:13;;;;;;;11.50;2.70;;;15.10;99.90;;;;;;4903436;28;89837;-31
2022/11/08 13:10:50;;;;;;;4.13;2.85;;;15.00;99.90;;;;;;4903084;28;89358;-36
2022/11/08 13:13:26;;;;;;;3.30;2.60;;;15.10;99.90;;;;;;4902670;28;90724;-31
2022/11/08 13:16:13;;;;;;;2.58;2.38;;;15.10;99.90;;;;;;4902797;28;90828;-34
2022/11/08 13:18:49;;;;;;;4.47;2.45;;;15.10;99.90;;;;;;4900983;28;90044;-32
2022/11/08 13:21:33;;;;;;;3.05;2.42;;;15.10;99.90;;;;;;4903212;28;90892;-33
2022/11/08 13:24:01;;;;;;;2.72;2.15;;;15.20;99.90;;;;;;4900759;28;89898;-34
2022/11/08 13:26:29;;;;;;;3.22;2.92;;;15.20;99.90;;;;;;4903744;28;90219;-34
2022/11/08 13:29:13;;;;;;;7.88;3.38;;;15.20;99.90;;;;;;4903427;28;89658;-34
2022/11/08 13:32:01;;;;;;;6.15;2.88;;;15.20;99.90;;;;;;4903693;28;89132;-33
2022/11/08 13:34:45;;;;;;;8.70;2.50;;;15.20;99.90;;;;;;4892783;28;89764;-31